Time;durP1;ratioP1;P1;durP2;ratioP2;P2;SDS_P1;SDS_P2;PMS_P1;PMS_P2;Temp;Humidity;BMP_temperature;BMP_pressure;BME280_temperature;BME280_humidity;BME280_pressure;Samples;Min_cycle;Max_cycle;Signal;HPM_P1;HPM_P2
2023/04/22 00:02:15;;;;;;;0.60;0.60;;;;;;;14.35;100.00;99862.09;5093478;28;20225;-75
2023/04/22 00:04:44;;;;;;;0.60;0.60;;;;;;;14.41;100.00;99876.88;5093990;28;20205;-75
2023/04/22 00:07:11;;;;;;;0.52;0.52;;;;;;;13.89;100.00;99806.59;5093232;28;20595;-75
2023/04/22 00:09:38;;;;;;;0.70;0.70;;;;;;;14.30;100.00;99874.25;5093528;28;20210;-75
2023/04/22 00:12:05;;;;;;;0.60;0.60;;;;;;;14.31;100.00;99871.63;5093169;28;20205;-74
2023/04/22 00:14:32;;;;;;;0.52;0.52;;;;;;;14.29;100.00;99872.53;5093629;28;20586;-76
2023/04/22 00:16:59;;;;;;;0.80;0.80;;;;;;;14.21;100.00;99880.38;5092937;28;20226;-73
2023/04/22 00:19:27;;;;;;;0.50;0.50;;;;;;;14.15;100.00;99875.19;5092903;28;20206;-73
2023/04/22 00:21:54;;;;;;;0.60;0.60;;;;;;;14.08;100.00;99860.44;5092311;28;20217;-74
2023/04/22 00:24:21;;;;;;;0.57;0.57;;;;;;;13.93;100.00;99834.38;5092436;28;20598;-73
2023/04/22 00:26:47;;;;;;;0.50;0.50;;;;;;;14.08;100.00;99870.84;5092579;28;20255;-73
2023/04/22 00:29:14;;;;;;;0.60;0.60;;;;;;;14.11;100.00;99872.56;5092316;28;20194;-74
2023/04/22 00:31:41;;;;;;;0.60;0.60;;;;;;;14.07;100.00;99863.88;5092931;28;20608;-73
2023/04/22 00:34:08;;;;;;;0.60;0.60;;;;;;;14.18;100.00;99887.34;5092919;28;20202;-73
2023/04/22 00:36:36;;;;;;;0.60;0.60;;;;;;;14.07;100.00;99882.13;5092653;28;20217;-73
2023/04/22 00:39:03;;;;;;;0.50;0.50;;;;;;;14.03;100.00;99885.63;5092729;28;20202;-73
2023/04/22 00:41:31;;;;;;;0.50;0.50;;;;;;;13.84;100.00;99870.91;5092574;28;20226;-73
2023/04/22 00:44:00;;;;;;;0.60;0.60;;;;;;;13.94;100.00;99890.88;5092556;28;20202;-72
2023/04/22 00:46:27;;;;;;;0.60;0.60;;;;;;;13.86;100.00;99887.41;5091802;28;20299;-73
2023/04/22 00:48:54;;;;;;;0.60;0.60;;;;;;;13.60;100.00;99860.50;5092943;28;20198;-73
2023/04/22 00:51:21;;;;;;;0.60;0.60;;;;;;;13.77;100.00;99895.22;5092561;28;20197;-73
2023/04/22 00:53:49;;;;;;;0.65;0.65;;;;;;;13.29;100.00;99811.03;5092432;28;20210;-73
2023/04/22 00:56:16;;;;;;;0.60;0.60;;;;;;;13.75;100.00;99896.97;5092303;28;20828;-73
2023/04/22 00:58:43;;;;;;;0.65;0.65;;;;;;;13.57;100.00;99899.56;5092254;28;20202;-73
2023/04/22 01:01:11;;;;;;;0.50;0.50;;;;;;;13.38;100.00;99894.34;5092083;28;20221;-73
2023/04/22 01:03:40;;;;;;;0.50;0.50;;;;;;;13.36;100.00;99900.44;5092058;28;20201;-73
2023/04/22 01:06:07;;;;;;;0.50;0.50;;;;;;;13.24;100.00;99880.47;5072859;28;20198;-73
2023/04/22 01:08:34;;;;;;;0.50;0.50;;;;;;;13.19;100.00;99877.00;5091981;28;20194;-73
2023/04/22 01:11:03;;;;;;;0.70;0.70;;;;;;;13.14;100.00;99878.72;5091661;28;20194;-74
2023/04/22 01:13:31;;;;;;;0.80;0.80;;;;;;;13.18;100.00;99888.28;5092157;28;20225;-73
2023/04/22 01:16:00;;;;;;;0.57;0.57;;;;;;;13.16;100.00;99861.34;5092038;28;20202;-74
2023/04/22 01:18:27;;;;;;;0.50;0.50;;;;;;;13.28;100.00;99896.94;5091787;28;20204;-74
2023/04/22 01:20:55;;;;;;;0.80;0.80;;;;;;;13.11;100.00;99857.91;5091082;28;20229;-73
2023/04/22 01:23:23;;;;;;;0.60;0.60;;;;;;;13.34;100.00;99892.63;5091109;28;20609;-73
2023/04/22 01:25:50;;;;;;;0.60;0.60;;;;;;;13.43;100.00;99896.09;5091631;28;20194;-73
2023/04/22 01:28:17;;;;;;;0.55;0.55;;;;;;;13.36;100.00;99895.22;5091005;28;20202;-73
2023/04/22 01:30:44;;;;;;;0.50;0.50;;;;;;;13.33;100.00;99870.06;5090982;28;20190;-73
2023/04/22 01:33:12;;;;;;;0.50;0.50;;;;;;;13.53;100.00;99890.00;5091313;28;20198;-73
2023/04/22 01:35:40;;;;;;;0.73;0.73;;;;;;;13.58;100.00;99890.91;5091188;28;20205;-73
2023/04/22 01:38:09;;;;;;;0.60;0.60;;;;;;;13.65;100.00;99893.50;5091578;28;20218;-73
2023/04/22 01:40:38;;;;;;;0.50;0.50;;;;;;;13.56;100.00;99866.56;5090856;28;20625;-73
2023/04/22 01:43:06;;;;;;;0.50;0.50;;;;;;;13.66;100.00;99883.97;5091253;28;20688;-74
2023/04/22 01:45:32;;;;;;;0.60;0.60;;;;;;;13.69;100.00;99883.94;5091374;28;20222;-73
2023/04/22 01:47:59;;;;;;;0.60;0.60;;;;;;;13.72;100.00;99887.41;5090948;28;20695;-74
2023/04/22 01:50:26;;;;;;;0.60;0.60;;;;;;;13.74;100.00;99877.84;5092042;28;20194;-74
2023/04/22 01:52:53;;;;;;;0.60;0.60;;;;;;;13.80;100.00;99877.00;5091368;28;20695;-73
2023/04/22 01:55:20;;;;;;;0.45;0.45;;;;;;;13.78;100.00;99879.59;5091297;28;20197;-74
2023/04/22 01:57:48;;;;;;;0.60;0.60;;;;;;;13.80;100.00;99872.66;5090517;28;20209;-74
2023/04/22 02:00:15;;;;;;;0.52;0.52;;;;;;;13.62;100.00;99850.94;5090835;28;20202;-74
2023/04/22 02:02:42;;;;;;;0.57;0.57;;;;;;;13.78;100.00;99876.09;5091041;28;20673;-74
2023/04/22 02:05:09;;;;;;;0.60;0.60;;;;;;;13.66;100.00;99863.13;5091393;28;20217;-74
2023/04/22 02:07:36;;;;;;;0.55;0.55;;;;;;;13.74;100.00;99869.16;5090633;28;20198;-74
2023/04/22 02:10:03;;;;;;;0.57;0.57;;;;;;;13.77;100.00;99875.22;5090905;28;20549;-74
2023/04/22 02:12:31;;;;;;;0.70;0.70;;;;;;;13.88;100.00;99885.63;5091103;28;20213;-75
2023/04/22 02:14:59;;;;;;;0.60;0.60;;;;;;;13.97;100.00;99880.44;5071923;28;20259;-75
2023/04/22 02:17:26;;;;;;;0.60;0.60;;;;;;;13.95;100.00;99866.50;5090637;28;20198;-75
2023/04/22 02:19:52;;;;;;;0.50;0.50;;;;;;;14.05;100.00;99873.47;5090844;28;20251;-75
2023/04/22 02:22:19;;;;;;;0.55;0.55;;;;;;;13.99;100.00;99872.59;5090468;28;20697;-76
2023/04/22 02:24:46;;;;;;;0.60;0.60;;;;;;;14.11;100.00;99877.78;5090647;28;20195;-75
2023/04/22 02:27:13;;;;;;;0.60;0.60;;;;;;;14.14;100.00;99877.78;5090635;28;20201;-75
2023/04/22 02:29:40;;;;;;;0.43;0.43;;;;;;;14.08;100.00;99868.25;5090828;28;20730;-75
2023/04/22 02:32:08;;;;;;;0.82;0.82;;;;;;;14.01;100.00;99844.78;5090699;28;20226;-74
2023/04/22 02:34:35;;;;;;;0.50;0.50;;;;;;;14.20;100.00;99882.97;5090755;28;20263;-74
2023/04/22 02:37:02;;;;;;;0.47;0.47;;;;;;;14.25;100.00;99882.09;5091292;28;20202;-74
2023/04/22 02:39:28;;;;;;;1.23;1.17;;;;;;;13.79;100.00;99797.94;5090936;28;20209;-74
2023/04/22 02:41:55;;;;;;;0.70;0.70;;;;;;;14.27;100.00;99875.13;5090826;28;20222;-74
2023/04/22 02:44:22;;;;;;;0.50;0.50;;;;;;;14.27;100.00;99877.72;5091280;28;20597;-74
2023/04/22 02:46:49;;;;;;;0.50;0.50;;;;;;;14.29;100.00;99876.00;5094207;28;20248;-74
2023/04/22 02:49:17;;;;;;;0.50;0.50;;;;;;;14.29;100.00;99873.41;5094726;28;20206;-76
2023/04/22 02:51:44;;;;;;;0.60;0.60;;;;;;;14.27;100.00;99875.13;5094360;28;20197;-74
2023/04/22 02:54:11;;;;;;;0.60;0.60;;;;;;;14.28;100.00;99876.88;5098149;28;20661;-74
2023/04/22 02:56:37;;;;;;;0.50;0.50;;;;;;;14.26;100.00;99873.41;5096119;28;20197;-74
2023/04/22 02:59:04;;;;;;;0.50;0.50;;;;;;;14.11;100.00;99847.38;5094286;28;20202;-74
2023/04/22 03:01:31;;;;;;;0.55;0.55;;;;;;;14.19;100.00;99874.31;5094086;28;20226;-74
2023/04/22 03:03:58;;;;;;;0.77;0.77;;;;;;;14.16;100.00;99874.28;5094914;28;20225;-74
2023/04/22 03:06:26;;;;;;;0.60;0.60;;;;;;;14.21;100.00;99872.53;5094865;28;20210;-74
2023/04/22 03:08:53;;;;;;;0.90;0.90;;;;;;;13.99;100.00;99836.97;5094533;28;20201;-74
2023/04/22 03:11:20;;;;;;;0.45;0.45;;;;;;;14.16;100.00;99869.06;5095091;28;20700;-74
2023/04/22 03:13:47;;;;;;;0.50;0.50;;;;;;;14.17;100.00;99870.81;5094976;28;20182;-74
2023/04/22 03:16:13;;;;;;;0.50;0.50;;;;;;;13.98;100.00;99834.38;5094903;28;20231;-74
2023/04/22 03:18:40;;;;;;;0.40;0.40;;;;;;;14.13;100.00;99870.81;5094511;28;20212;-74
2023/04/22 03:21:07;;;;;;;0.55;0.55;;;;;;;14.08;100.00;99873.47;5094466;28;20194;-74
2023/04/22 03:23:35;;;;;;;0.60;0.60;;;;;;;14.09;100.00;99864.75;5069511;28;20194;-75
2023/04/22 03:26:02;;;;;;;0.82;0.82;;;;;;;14.09;100.00;99871.72;5091799;28;20746;-74
2023/04/22 03:28:29;;;;;;;0.60;0.60;;;;;;;14.13;100.00;99871.69;5093811;28;20632;-75
2023/04/22 03:30:56;;;;;;;0.70;0.70;;;;;;;14.11;100.00;99862.16;5093586;28;20206;-75
2023/04/22 03:33:22;;;;;;;0.57;0.57;;;;;;;14.22;100.00;99871.69;5094646;28;20335;-73
2023/04/22 03:35:49;;;;;;;0.50;0.50;;;;;;;14.15;100.00;99851.72;5093904;28;20194;-74
2023/04/22 03:38:16;;;;;;;0.50;0.50;;;;;;;14.36;100.00;99882.97;5063389;28;20290;-75
2023/04/22 03:40:45;;;;;;;0.60;0.60;;;;;;;14.44;100.00;99884.69;5089948;28;20194;-75
2023/04/22 03:43:11;;;;;;;0.40;0.40;;;;;;;14.44;100.00;99889.91;5093936;28;20245;-75
2023/04/22 03:45:38;;;;;;;5.20;2.10;;;;;;;14.38;100.00;99875.97;5094017;28;20238;-74
2023/04/22 03:48:05;;;;;;;0.60;0.60;;;;;;;14.08;100.00;99816.09;5093636;28;20202;-75
2023/04/22 03:50:33;;;;;;;0.50;0.50;;;;;;;14.63;100.00;99895.00;5093918;28;20248;-74
2023/04/22 03:53:00;;;;;;;0.55;0.55;;;;;;;14.74;100.00;99897.56;5093661;28;20205;-73
2023/04/22 03:55:27;;;;;;;0.60;0.60;;;;;;;14.86;100.00;99903.63;5093661;28;20214;-74
2023/04/22 03:57:55;;;;;;;0.60;0.60;;;;;;;14.99;100.00;99901.78;5093278;28;20198;-74
2023/04/22 04:00:22;;;;;;;0.60;0.60;;;;;;;15.04;100.00;99913.09;5093832;28;20217;-74
2023/04/22 04:02:48;;;;;;;1.05;1.05;;;;;;;15.09;100.00;99916.53;5093839;28;20225;-75
2023/04/22 04:05:15;;;;;;;0.70;0.70;;;;;;;15.02;100.00;99899.16;5092833;28;20564;-74
2023/04/22 04:07:42;;;;;;;0.50;0.50;;;;;;;15.06;100.00;99916.53;5093441;28;20194;-75
2023/04/22 04:10:10;;;;;;;0.50;0.50;;;;;;;14.99;100.00;99901.78;5062220;28;20341;-75
2023/04/22 04:12:37;;;;;;;0.50;0.50;;;;;;;15.02;100.00;99906.16;5080947;28;20205;-75
2023/04/22 04:15:07;;;;;;;0.60;0.60;;;;;;;15.00;100.00;99923.56;5093419;28;20202;-75
2023/04/22 04:17:33;;;;;;;0.60;0.60;;;;;;;14.58;100.00;99928.09;5093775;28;20298;-75
2023/04/22 04:20:00;;;;;;;0.40;0.40;;;;;;;14.50;100.00;99940.31;5091372;28;20681;-75
2023/04/22 04:22:28;;;;;;;0.50;0.50;;;;;;;14.64;100.00;99959.38;5085426;28;20609;-76
2023/04/22 04:24:55;;;;;;;0.40;0.40;;;;;;;14.54;100.00;99942.03;5091862;28;20778;-76
2023/04/22 04:27:22;;;;;;;0.80;0.80;;;;;;;14.62;100.00;99965.50;5093100;28;20244;-75
2023/04/22 04:29:50;;;;;;;0.50;0.50;;;;;;;14.67;100.00;99975.03;5092762;28;20198;-75
2023/04/22 04:32:18;;;;;;;0.50;0.50;;;;;;;14.71;100.00;99960.22;5092651;28;20601;-75
2023/04/22 04:34:45;;;;;;;0.70;0.70;;;;;;;14.54;100.00;99957.69;5092648;28;20202;-74
2023/04/22 04:37:12;;;;;;;0.60;0.60;;;;;;;14.44;100.00;99962.94;5093169;28;20607;-74
2023/04/22 04:39:38;;;;;;;0.70;0.70;;;;;;;14.59;100.00;99960.28;5092351;28;20193;-74
2023/04/22 04:42:06;;;;;;;0.50;0.50;;;;;;;14.60;100.00;99956.78;5092682;28;20275;-74
2023/04/22 04:44:33;;;;;;;0.50;0.50;;;;;;;14.77;100.00;99973.25;5089471;28;20252;-75
2023/04/22 04:46:59;;;;;;;0.50;0.50;;;;;;;14.82;100.00;99976.72;5057084;28;20221;-75
2023/04/22 04:49:29;;;;;;;0.60;0.60;;;;;;;14.82;100.00;99950.63;5092297;28;20986;-75
2023/04/22 04:51:56;;;;;;;0.50;0.50;;;;;;;15.01;100.00;99972.28;5093094;28;20294;-75
2023/04/22 04:54:23;;;;;;;0.60;0.60;;;;;;;15.18;100.00;99981.78;5092546;28;20194;-75
2023/04/22 04:56:50;;;;;;;0.57;0.57;;;;;;;15.24;100.00;99981.75;5092410;28;20198;-75
2023/04/22 04:59:17;;;;;;;0.60;0.60;;;;;;;15.13;100.00;99959.16;5091085;28;20233;-75
2023/04/22 05:01:43;;;;;;;0.50;0.50;;;;;;;15.25;100.00;99991.31;5090446;28;20675;-75
2023/04/22 05:04:10;;;;;;;0.50;0.50;;;;;;;15.18;100.00;99986.13;5092343;28;20198;-75
2023/04/22 05:06:38;;;;;;;0.60;0.60;;;;;;;15.16;100.00;99980.91;5067988;28;20575;-74
2023/04/22 05:09:06;;;;;;;0.60;0.60;;;;;;;15.01;100.00;99991.44;5092264;28;20217;-74
2023/04/22 05:11:33;;;;;;;1.65;1.50;;;;;;;15.15;100.00;99978.31;5092232;28;20198;-76
2023/04/22 05:14:00;;;;;;;0.50;0.50;;;;;;;15.38;100.00;99999.94;5092173;28;20326;-74
2023/04/22 05:16:27;;;;;;;0.68;0.68;;;;;;;15.42;100.00;99995.56;5090697;28;20676;-74
2023/04/22 05:18:54;;;;;;;0.60;0.60;;;;;;;14.42;100.00;99875.97;5066711;28;20194;-75
2023/04/22 05:21:21;;;;;;;1.02;1.02;;;;;;;14.72;100.00;99998.50;5081969;28;20206;-76
2023/04/22 05:23:49;;;;;;;0.80;0.80;;;;;;;14.36;100.00;99992.50;5091528;28;20221;-75
2023/04/22 05:26:16;;;;;;;0.50;0.50;;;;;;;14.48;100.00;99999.47;5092107;28;20211;-75
2023/04/22 05:28:42;;;;;;;0.70;0.70;;;;;;;14.63;100.00;100001.13;5092028;28;20209;-75
2023/04/22 05:31:09;;;;;;;0.70;0.70;;;;;;;14.79;100.00;100001.09;5091317;28;20190;-75
2023/04/22 05:33:36;;;;;;;0.52;0.52;;;;;;;14.88;100.00;100005.41;5091875;28;20190;-76
2023/04/22 05:36:03;;;;;;;0.50;0.50;;;;;;;15.04;100.00;100017.53;5089322;28;20202;-76
2023/04/22 05:38:29;;;;;;;0.50;0.50;;;;;;;15.23;100.00;100013.94;5091744;28;20207;-75
2023/04/22 05:40:58;;;;;;;0.70;0.70;;;;;;;15.64;100.00;100005.03;5091694;28;20218;-75
2023/04/22 05:43:24;;;;;;;0.55;0.55;;;;;;;15.76;100.00;100015.44;5091129;28;20218;-77
2023/04/22 05:45:51;;;;;;;0.70;0.70;;;;;;;15.71;100.00;100007.63;5082657;28;20234;-74
2023/04/22 05:48:18;;;;;;;0.60;0.60;;;;;;;15.93;100.00;100008.31;5087860;28;20190;-76
2023/04/22 05:50:45;;;;;;;0.60;0.60;;;;;;;16.10;100.00;100014.28;5084784;28;20194;-72
2023/04/22 05:53:11;;;;;;;0.80;0.80;;;;;;;16.12;100.00;100004.69;5087171;28;20229;-72
2023/04/22 05:55:38;;;;;;;0.50;0.50;;;;;;;16.25;100.00;100022.00;5079999;28;20594;-73
2023/04/22 05:58:06;;;;;;;0.70;0.70;;;;;;;16.23;100.00;100008.03;5081313;28;20309;-72
2023/04/22 06:00:33;;;;;;;0.60;0.60;;;;;;;16.31;100.00;100035.03;5086715;28;20293;-71
2023/04/22 06:03:00;;;;;;;0.93;0.93;;;;;;;16.36;100.00;100043.72;5080187;28;20570;-71
2023/04/22 06:05:27;;;;;;;0.50;0.50;;;;;;;16.40;100.00;100049.78;5086731;28;20198;-71
2023/04/22 06:07:54;;;;;;;0.43;0.43;;;;;;;16.50;100.00;100045.31;5079826;28;20205;-75
2023/04/22 06:10:21;;;;;;;0.45;0.45;;;;;;;16.56;100.00;100050.50;5089737;28;20205;-73
2023/04/22 06:12:48;;;;;;;0.50;0.50;;;;;;;16.41;100.00;100033.16;5089333;28;20263;-75
2023/04/22 06:15:16;;;;;;;0.50;0.50;;;;;;;16.79;100.00;100056.41;5089938;28;20613;-76
2023/04/22 06:17:43;;;;;;;0.50;0.50;;;;;;;16.98;100.00;100059.69;5089665;28;20270;-68
2023/04/22 06:20:11;;;;;;;0.77;0.77;;;;;;;17.07;100.00;100047.34;5082087;28;20321;-69
2023/04/22 06:22:38;;;;;;;0.60;0.60;;;;;;;16.98;100.00;100063.16;5090382;28;20226;-69
2023/04/22 06:25:06;;;;;;;0.60;0.60;;;;;;;16.80;100.00;100063.38;5086335;28;20217;-71
2023/04/22 06:27:32;;;;;;;0.60;0.60;;;;;;;16.83;100.00;100058.97;5088748;28;20282;-72
2023/04/22 06:29:59;;;;;;;0.60;0.60;;;;;;;17.07;100.00;100068.31;5044644;28;20195;-76
2023/04/22 06:32:27;;;;;;;0.73;0.73;;;;;;;17.20;100.00;100064.66;5088348;28;20312;-74
2023/04/22 06:34:54;;;;;;;0.60;0.60;;;;;;;17.44;100.00;100073.09;5081272;28;20640;-79
2023/04/22 06:37:21;;;;;;;0.50;0.50;;;;;;;17.37;100.00;100072.31;5080221;28;20201;-79
2023/04/22 06:39:48;;;;;;;1.15;1.15;;;;;;;16.72;100.00;100065.22;5074761;28;20202;-74
2023/04/22 06:42:14;;;;;;;0.80;0.80;;;;;;;16.65;100.00;100064.41;5085017;28;20558;-78
2023/04/22 06:44:41;;;;;;;0.60;0.60;;;;;;;17.12;100.00;100086.59;5088392;28;20198;-78
2023/04/22 06:47:08;;;;;;;0.50;0.50;;;;;;;17.32;100.00;100090.72;5087976;28;20234;-79
2023/04/22 06:49:38;;;;;;;0.70;0.70;;;;;;;17.49;100.00;100089.63;5088998;28;20198;-73
2023/04/22 06:52:05;;;;;;;0.70;0.70;;;;;;;17.99;100.00;100092.44;5068554;28;20209;-73
2023/04/22 06:54:32;;;;;;;0.80;0.80;;;;;;;18.24;100.00;100096.44;5081079;28;20206;-75
2023/04/22 06:56:58;;;;;;;0.70;0.70;;;;;;;18.51;98.32;100099.53;5087324;28;20202;-74
2023/04/22 06:59:25;;;;;;;0.50;0.50;;;;;;;18.46;98.37;100106.59;5084649;28;20210;-73
2023/04/22 07:01:52;;;;;;;0.70;0.70;;;;;;;17.97;99.46;100093.38;5080248;28;20202;-76
2023/04/22 07:04:19;;;;;;;0.60;0.60;;;;;;;17.89;100.00;100103.97;5075438;28;20226;-78
2023/04/22 07:06:47;;;;;;;0.65;0.65;;;;;;;18.17;100.00;100110.53;5085284;28;20803;-76
2023/04/22 07:09:14;;;;;;;0.50;0.50;;;;;;;18.47;98.22;100110.94;5089697;28;20572;-76
2023/04/22 07:11:41;;;;;;;0.55;0.55;;;;;;;18.25;96.67;100098.19;5060228;28;20642;-76
2023/04/22 07:14:07;;;;;;;0.60;0.60;;;;;;;18.50;100.00;100110.91;5089904;28;20202;-70
2023/04/22 07:16:34;;;;;;;0.60;0.60;;;;;;;17.95;97.29;100124.88;5075105;28;20654;-71
2023/04/22 07:19:01;;;;;;;0.60;0.60;;;;;;;17.58;100.00;100114.03;5089773;28;20218;-77
2023/04/22 07:21:28;;;;;;;0.70;0.70;;;;;;;17.55;100.00;100128.91;5088880;28;20214;-70
2023/04/22 07:23:56;;;;;;;0.57;0.57;;;;;;;17.34;100.00;100114.28;5088647;28;20226;-71
2023/04/22 07:26:23;;;;;;;0.60;0.60;;;;;;;17.04;100.00;100009.84;5087999;28;20259;-71
2023/04/22 07:28:50;;;;;;;0.80;0.80;;;;;;;17.73;100.00;100133.91;5054726;28;20652;-75
2023/04/22 07:31:17;;;;;;;0.60;0.60;;;;;;;17.68;100.00;100136.63;5089064;28;20214;-75
2023/04/22 07:33:43;;;;;;;0.73;0.73;;;;;;;17.50;100.00;100144.69;5089677;28;20292;-73
2023/04/22 07:36:10;;;;;;;1.60;1.55;;;;;;;17.04;100.00;100130.34;5045848;28;20210;-73
2023/04/22 07:38:37;;;;;;;0.52;0.52;;;;;;;16.67;100.00;100080.09;5088276;28;20221;-75
2023/04/22 07:41:05;;;;;;;0.93;0.93;;;;;;;16.93;100.00;100075.44;5088945;28;20258;-78
2023/04/22 07:43:32;;;;;;;0.80;0.80;;;;;;;17.84;100.00;100137.25;5093106;28;20233;-80
2023/04/22 07:45:59;;;;;;;0.52;0.52;;;;;;;18.15;100.00;100145.59;5072032;28;20230;-79
2023/04/22 07:48:26;;;;;;;0.65;0.65;;;;;;;18.36;100.00;100144.38;5092806;28;20280;-72
2023/04/22 07:50:52;;;;;;;0.60;0.60;;;;;;;18.23;100.00;100126.19;5093019;28;20202;-76
2023/04/22 07:53:19;;;;;;;0.57;0.57;;;;;;;18.92;100.00;100138.19;5085603;28;20666;-76
2023/04/22 07:55:48;;;;;;;0.60;0.60;;;;;;;19.27;100.00;100151.56;5079140;28;20222;-71
2023/04/22 07:58:16;;;;;;;0.40;0.40;;;;;;;19.45;93.10;100145.09;5072232;28;20202;-76
2023/04/22 08:00:43;;;;;;;0.60;0.60;;;;;;;18.93;100.00;100145.19;5080573;28;20216;-77
2023/04/22 08:03:10;;;;;;;0.50;0.50;;;;;;;18.96;94.35;100142.50;5086796;28;20225;-72
2023/04/22 08:05:37;;;;;;;0.60;0.60;;;;;;;18.81;95.22;100133.13;5083016;28;20723;-72
2023/04/22 08:08:03;;;;;;;0.70;0.70;;;;;;;19.27;94.88;100149.78;5087379;28;20198;-72
2023/04/22 08:10:30;;;;;;;0.50;0.50;;;;;;;19.21;93.58;100155.19;5065598;28;20267;-73
2023/04/22 08:12:57;;;;;;;0.60;0.60;;;;;;;19.30;94.23;100156.75;5047818;28;20208;-72
2023/04/22 08:15:25;;;;;;;0.50;0.50;;;;;;;19.39;92.16;100160.97;5088976;28;20346;-71
2023/04/22 08:17:52;;;;;;;0.60;0.60;;;;;;;18.98;92.78;100157.34;5089001;28;20297;-71
2023/04/22 08:20:19;;;;;;;0.50;0.50;;;;;;;19.20;91.74;100161.31;5091921;28;20194;-72
2023/04/22 08:22:45;;;;;;;0.60;0.60;;;;;;;18.48;93.88;100158.16;5085473;28;20202;-72
2023/04/22 08:25:13;;;;;;;0.60;0.60;;;;;;;18.66;96.45;100157.03;5081410;28;20198;-72
2023/04/22 08:27:39;;;;;;;0.70;0.70;;;;;;;18.41;96.25;100164.41;5091013;28;20221;-72
2023/04/22 08:30:07;;;;;;;0.50;0.50;;;;;;;18.26;95.39;100165.50;5088341;28;20194;-71
2023/04/22 08:32:35;;;;;;;0.65;0.65;;;;;;;18.79;95.33;100163.84;5083972;28;20206;-71
2023/04/22 08:35:02;;;;;;;0.60;0.60;;;;;;;18.54;98.21;100159.88;5092490;28;20293;-71
2023/04/22 08:37:29;;;;;;;0.60;0.60;;;;;;;18.55;94.44;100164.25;5091192;28;20201;-70
2023/04/22 08:39:56;;;;;;;0.63;0.63;;;;;;;18.75;92.98;100154.28;5088547;28;20198;-71
2023/04/22 08:42:23;;;;;;;0.50;0.50;;;;;;;19.07;93.69;100161.59;5091964;28;20201;-72
2023/04/22 08:44:50;;;;;;;0.60;0.60;;;;;;;18.50;95.46;100174.78;5086149;28;20225;-74
2023/04/22 08:47:19;;;;;;;0.70;0.70;;;;;;;17.86;96.96;100088.28;5078404;28;20226;-72
2023/04/22 08:49:47;;;;;;;0.60;0.60;;;;;;;18.43;96.77;100177.53;5071953;28;20213;-72
2023/04/22 08:52:14;;;;;;;0.50;0.50;;;;;;;18.91;91.47;100176.75;5089758;28;20206;-72
2023/04/22 08:54:41;;;;;;;0.47;0.47;;;;;;;18.56;92.05;100172.09;5073158;28;20203;-73
2023/04/22 08:57:09;;;;;;;0.57;0.57;;;;;;;19.41;87.88;100180.22;5071970;28;20293;-73
2023/04/22 08:59:37;;;;;;;0.55;0.55;;;;;;;18.95;85.27;100185.44;5088704;28;20198;-73
2023/04/22 09:02:05;;;;;;;0.50;0.50;;;;;;;18.89;86.32;100165.41;5091914;28;20209;-73
2023/04/22 09:04:32;;;;;;;0.50;0.50;;;;;;;18.94;85.34;100174.06;5090946;28;20613;-74
2023/04/22 09:07:01;;;;;;;0.50;0.50;;;;;;;19.14;87.67;100185.09;5091467;28;20202;-72
2023/04/22 09:09:30;;;;;;;52.50;2.63;;;;;;;18.40;90.16;100112.81;5055262;28;20566;-73
2023/04/22 09:11:57;;;;;;;0.50;0.50;;;;;;;18.58;90.82;100191.34;5091558;28;20255;-73
2023/04/22 09:14:25;;;;;;;0.50;0.50;;;;;;;18.73;90.45;100187.56;5091802;28;20233;-72
2023/04/22 09:16:52;;;;;;;0.60;0.60;;;;;;;18.85;90.17;100184.75;5091518;28;20211;-72
2023/04/22 09:19:23;;;;;;;0.77;0.77;;;;;;;18.13;92.91;100066.88;5090878;28;20691;-73
2023/04/22 09:21:50;;;;;;;0.60;0.60;;;;;;;19.09;93.77;100180.81;5087294;28;20308;-73
2023/04/22 09:24:19;;;;;;;0.60;0.60;;;;;;;18.43;98.20;100188.91;5091907;28;20350;-73
2023/04/22 09:26:47;;;;;;;0.60;0.60;;;;;;;18.26;100.00;100183.88;5090280;28;20225;-73
2023/04/22 09:29:16;;;;;;;0.50;0.50;;;;;;;19.27;97.55;100183.97;5091126;28;20213;-74
2023/04/22 09:31:48;;;;;;;0.50;0.50;;;;;;;18.86;99.17;100175.97;5086590;28;20248;-72
2023/04/22 09:34:15;;;;;;;0.65;0.65;;;;;;;18.69;97.88;100178.03;5072650;28;20312;-73
2023/04/22 09:36:45;;;;;;;0.57;0.57;;;;;;;18.49;100.00;100178.28;5090622;28;20198;-73
2023/04/22 09:39:12;;;;;;;0.60;0.60;;;;;;;19.35;98.41;100168.06;5084345;28;20224;-75
2023/04/22 09:41:41;;;;;;;1.02;1.02;;;;;;;19.39;91.87;100164.47;5048274;28;20214;-75
2023/04/22 09:44:10;;;;;;;0.73;0.73;;;;;;;19.31;89.75;100075.22;5090674;28;20226;-72
2023/04/22 09:46:37;;;;;;;0.52;0.52;;;;;;;19.28;85.97;100169.06;5079840;28;20633;-73
2023/04/22 09:49:04;;;;;;;0.50;0.50;;;;;;;19.83;86.35;100160.97;5076846;28;20315;-74
2023/04/22 09:51:33;;;;;;;1.40;1.40;;;;;;;19.60;82.97;100165.84;5077374;28;20199;-74
2023/04/22 09:54:04;;;;;;;0.52;0.52;;;;;;;19.71;83.97;100163.84;5089103;28;20661;-74
2023/04/22 09:56:43;;;;;;;0.50;0.50;;;;;;;19.37;79.66;100139.13;5086193;28;20278;-69
2023/04/22 09:59:11;;;;;;;0.50;0.50;;;;;;;19.02;78.91;100161.66;5076208;28;20207;-72
2023/04/22 10:01:39;;;;;;;0.70;0.70;;;;;;;18.81;80.84;100156.78;5031676;28;20824;-73
2023/04/22 10:04:07;;;;;;;0.60;0.60;;;;;;;18.80;80.54;100149.78;5085792;28;20225;-70
2023/04/22 10:06:33;;;;;;;0.70;0.70;;;;;;;18.85;83.76;100147.97;5046403;28;20652;-70
2023/04/22 10:09:01;;;;;;;0.50;0.50;;;;;;;18.80;77.77;100145.41;5053957;28;20202;-70
2023/04/22 10:11:28;;;;;;;0.70;0.70;;;;;;;18.76;79.56;100132.38;5054417;28;20275;-70
2023/04/22 10:13:56;;;;;;;0.90;0.90;;;;;;;19.06;68.77;100144.94;5090281;28;20267;-70
2023/04/22 10:16:24;;;;;;;0.60;0.60;;;;;;;19.75;65.87;100144.47;5090051;28;20210;-71
2023/04/22 10:18:55;;;;;;;0.60;0.60;;;;;;;19.86;66.18;100131.97;5090443;28;20218;-71
2023/04/22 10:21:24;;;;;;;0.47;0.47;;;;;;;20.20;62.81;100145.22;5069378;28;20228;-73
2023/04/22 10:23:51;;;;;;;0.50;0.50;;;;;;;20.30;62.65;100133.59;5089740;28;20217;-73
2023/04/22 10:26:39;;;;;;;0.70;0.70;;;;;;;19.91;60.32;100130.09;5088166;28;20201;-73
2023/04/22 10:29:09;;;;;;;0.60;0.60;;;;;;;19.70;63.20;100128.78;5081297;28;20238;-78
2023/04/22 10:31:38;;;;;;;1.42;1.33;;;;;;;19.70;65.24;100135.81;5084235;28;20209;-74
2023/04/22 10:34:15;;;;;;;0.98;0.98;;;;;;;19.28;66.22;100138.41;5084645;28;20295;-72
2023/04/22 10:37:01;;;;;;;0.60;0.60;;;;;;;19.67;60.44;100141.13;5089814;28;20233;-72
2023/04/22 10:39:29;;;;;;;0.60;0.60;;;;;;;19.52;53.96;100139.69;5081206;28;20198;-73
2023/04/22 10:42:04;;;;;;;0.50;0.50;;;;;;;18.80;56.53;100118.25;5077593;28;20671;-71
2023/04/22 10:44:49;;;;;;;6.43;3.33;;;;;;;19.40;55.28;100139.06;5083867;28;20256;-71
2023/04/22 10:47:27;;;;;;;0.60;0.60;;;;;;;19.33;55.93;100142.69;5074142;28;20658;-73
2023/04/22 10:50:13;;;;;;;0.60;0.60;;;;;;;19.28;52.84;100120.00;5089529;28;20668;-72
2023/04/22 10:52:41;;;;;;;0.50;0.50;;;;;;;19.56;53.18;100114.19;5082463;28;20616;-73
2023/04/22 10:55:09;;;;;;;0.60;0.60;;;;;;;19.83;51.39;100134.66;5087335;28;20214;-72
2023/04/22 10:57:40;;;;;;;0.82;0.82;;;;;;;19.85;48.61;100132.84;5079288;28;20207;-73
2023/04/22 11:00:26;;;;;;;0.60;0.60;;;;;;;20.14;48.51;100117.28;5070098;28;20206;-73
2023/04/22 11:03:06;;;;;;;0.60;0.60;;;;;;;20.22;48.24;100120.59;5083564;28;20198;-73
2023/04/22 11:05:34;;;;;;;0.70;0.70;;;;;;;19.81;47.77;100120.66;5089724;28;20226;-73
2023/04/22 11:08:03;;;;;;;0.70;0.70;;;;;;;20.08;47.96;100116.56;5087236;28;20559;-73
2023/04/22 11:10:36;;;;;;;0.63;0.63;;;;;;;19.73;46.63;100093.63;5090162;28;20206;-73
2023/04/22 11:13:05;;;;;;;0.60;0.60;;;;;;;20.11;47.65;100119.97;5086983;28;20202;-73
2023/04/22 11:15:35;;;;;;;0.50;0.50;;;;;;;20.37;45.53;100122.00;5093740;28;20204;-72
2023/04/22 11:18:02;;;;;;;0.70;0.70;;;;;;;20.42;44.99;100127.19;5093209;28;20622;-73
2023/04/22 11:20:29;;;;;;;0.68;0.68;;;;;;;20.34;47.46;100126.47;5093652;28;20296;-71
2023/04/22 11:22:57;;;;;;;0.50;0.50;;;;;;;20.69;47.50;100121.25;5092722;28;20233;-73
2023/04/22 11:25:26;;;;;;;0.98;0.98;;;;;;;20.58;45.69;100108.31;5093192;28;20642;-73
2023/04/22 11:27:53;;;;;;;0.50;0.50;;;;;;;20.66;45.50;100110.75;5085481;28;20653;-72